Time;durP1;ratioP1;P1;durP2;ratioP2;P2;SDS_P1;SDS_P2;PMS_P1;PMS_P2;Temp;Humidity;BMP_temperature;BMP_pressure;BME280_temperature;BME280_humidity;BME280_pressure;Samples;Min_cycle;Max_cycle;Signal;HPM_P1;HPM_P2
2021/12/20 00:00:46;;;;;;;21.88;4.20;;;5.50;99.90;;;;;;4967923;23;20460;-94
2021/12/20 00:03:20;;;;;;;24.70;4.07;;;5.60;99.90;;;;;;4938990;23;20397;-95
2021/12/20 00:05:58;;;;;;;28.67;4.90;;;5.60;99.90;;;;;;4922369;29;20048;-94
2021/12/20 00:08:36;;;;;;;21.57;3.93;;;5.50;99.90;;;;;;4937328;29;20044;-94
2021/12/20 00:11:05;;;;;;;24.03;4.77;;;6.00;99.90;;;;;;4944847;29;20075;-94
2021/12/20 00:13:39;;;;;;;27.50;4.43;;;5.70;99.90;;;;;;4945653;29;20048;-94
2021/12/20 00:16:14;;;;;;;22.87;4.30;;;5.80;99.90;;;;;;4931025;29;20044;-93
2021/12/20 00:19:30;;;;;;;28.23;4.47;;;5.30;99.90;;;;;;4977043;23;20119;-92
2021/12/20 00:26:28;;;;;;;27.47;4.57;;;4.80;99.90;;;;;;5002243;23;20130;-93
2021/12/20 00:29:00;;;;;;;21.53;4.70;;;4.80;99.90;;;;;;4940822;29;20106;-93
2021/12/20 00:31:37;;;;;;;20.87;4.00;;;4.60;99.90;;;;;;4941213;29;20051;-94
2021/12/20 00:34:16;;;;;;;25.87;5.10;;;3.70;99.90;;;;;;4939619;29;20050;-93
2021/12/20 00:36:56;;;;;;;22.93;4.30;;;4.90;99.90;;;;;;4940405;29;20050;-94
2021/12/20 00:42:55;;;;;;;19.83;3.97;;;5.10;99.90;;;;;;4941343;29;20052;-94
2021/12/20 00:46:02;;;;;;;22.42;4.10;;;3.10;99.90;;;;;;4943220;29;20043;-93
2021/12/20 00:48:47;;;;;;;24.20;3.97;;;3.90;99.90;;;;;;4917768;29;20527;-93
2021/12/20 00:51:22;;;;;;;22.23;4.07;;;4.50;99.90;;;;;;4940726;29;20105;-93
2021/12/20 00:54:03;;;;;;;24.67;4.63;;;4.30;99.90;;;;;;4980900;23;20070;-93
2021/12/20 00:56:39;;;;;;;26.87;4.30;;;3.20;99.90;;;;;;4976072;28;20054;-93
2021/12/20 00:59:17;;;;;;;25.00;5.00;;;4.60;99.90;;;;;;4966417;28;20063;-93
2021/12/20 01:02:23;;;;;;;19.37;3.83;;;4.30;99.90;;;;;;4963612;28;20039;-93
2021/12/20 01:05:41;;;;;;;23.03;4.00;;;2.80;99.90;;;;;;5042371;23;20090;-93
2021/12/20 01:08:57;;;;;;;22.97;3.80;;;3.30;99.90;;;;;;4959114;28;20050;-92
2021/12/20 01:12:19;;;;;;;25.50;4.60;;;3.10;99.90;;;;;;4958427;28;20046;-92
2021/12/20 01:14:46;;;;;;;24.00;4.63;;;3.30;99.90;;;;;;4959876;28;20093;-92
2021/12/20 01:17:30;;;;;;;22.10;4.27;;;3.10;99.90;;;;;;4961848;28;20398;-92
2021/12/20 01:20:08;;;;;;;18.63;3.92;;;3.40;99.90;;;;;;4965224;23;20054;-92
2021/12/20 01:22:40;;;;;;;27.83;4.27;;;3.10;99.90;;;;;;4959002;28;20146;-93
2021/12/20 01:25:16;;;;;;;21.83;4.43;;;3.00;99.90;;;;;;4971645;28;20027;-91
2021/12/20 01:27:53;;;;;;;22.37;3.77;;;3.60;99.90;;;;;;4975379;28;20042;-93
2021/12/20 01:30:31;;;;;;;32.00;4.83;;;2.70;99.90;;;;;;4959008;28;20051;-93
2021/12/20 01:33:08;;;;;;;20.93;4.63;;;3.20;99.90;;;;;;4963321;23;20451;-93
2021/12/20 01:35:40;;;;;;;26.33;4.40;;;3.50;99.90;;;;;;4979238;28;20027;-93
2021/12/20 01:38:22;;;;;;;29.60;4.47;;;3.10;99.90;;;;;;4963652;28;20043;-93
2021/12/20 01:41:03;;;;;;;23.30;3.77;;;2.50;99.90;;;;;;4955331;29;20102;-93
2021/12/20 01:43:36;;;;;;;22.47;3.83;;;3.30;99.90;;;;;;4955389;29;20051;-93
2021/12/20 01:46:17;;;;;;;21.20;4.03;;;2.60;99.90;;;;;;4955852;29;20086;-92
2021/12/20 01:48:54;;;;;;;25.07;4.20;;;2.40;99.90;;;;;;4955038;29;20495;-93
2021/12/20 01:51:46;;;;;;;24.23;4.20;;;3.00;99.90;;;;;;4955120;29;20113;-93
2021/12/20 01:54:38;;;;;;;26.97;4.13;;;3.00;99.90;;;;;;4954967;29;20105;-93
2021/12/20 01:57:21;;;;;;;23.40;4.40;;;2.70;99.90;;;;;;4955370;29;20055;-93
2021/12/20 01:59:50;;;;;;;22.05;3.97;;;3.50;99.90;;;;;;4955284;29;20039;-92
2021/12/20 02:02:34;;;;;;;29.00;4.13;;;2.20;99.90;;;;;;4956251;29;20097;-93
2021/12/20 02:05:20;;;;;;;24.63;3.92;;;2.50;99.90;;;;;;4954947;29;20081;-93
2021/12/20 02:08:28;;;;;;;20.80;3.70;;;2.40;99.90;;;;;;4954735;29;20082;-93
2021/12/20 02:11:09;;;;;;;20.23;3.70;;;2.20;99.90;;;;;;4955230;29;20051;-93
2021/12/20 02:13:44;;;;;;;25.53;3.33;;;1.30;99.90;;;;;;4970744;29;20035;-93
2021/12/20 02:16:25;;;;;;;24.30;3.90;;;1.70;99.90;;;;;;4955558;29;20135;-93
2021/12/20 02:19:10;;;;;;;22.63;3.93;;;2.20;99.90;;;;;;4954975;29;20047;-92
2021/12/20 02:21:44;;;;;;;19.70;3.80;;;1.60;99.90;;;;;;4955302;29;20511;-94
2021/12/20 02:24:22;;;;;;;21.80;3.67;;;1.80;99.90;;;;;;4965462;23;20392;-93
2021/12/20 02:27:38;;;;;;;25.17;3.57;;;2.40;99.90;;;;;;4958805;28;20047;-93
2021/12/20 02:30:50;;;;;;;25.13;4.07;;;1.80;99.90;;;;;;4975319;28;20140;-93
2021/12/20 02:39:42;;;;;;;19.67;3.70;;;1.40;99.90;;;;;;4955583;29;20132;-92
2021/12/20 02:45:10;;;;;;;18.00;3.37;;;1.50;99.90;;;;;;4980069;23;20057;-93
2021/12/20 02:47:40;;;;;;;27.03;3.97;;;0.80;99.90;;;;;;4959686;28;20093;-94
2021/12/20 02:50:09;;;;;;;28.50;4.10;;;1.70;99.90;;;;;;4976787;28;20046;-93
2021/12/20 02:53:01;;;;;;;26.13;4.00;;;1.80;99.90;;;;;;4975240;23;20037;-92
2021/12/20 02:55:32;;;;;;;23.33;3.60;;;1.20;99.90;;;;;;4944455;29;20583;-93
2021/12/20 02:58:12;;;;;;;14.83;3.43;;;1.50;99.90;;;;;;4942885;29;20487;-93
2021/12/20 03:00:47;;;;;;;19.03;3.80;;;1.40;99.90;;;;;;4938469;29;20035;-93
2021/12/20 03:03:57;;;;;;;21.90;4.00;;;2.30;99.90;;;;;;4923720;29;20040;-93
2021/12/20 03:06:47;;;;;;;14.70;2.90;;;0.70;99.90;;;;;;4865765;29;20053;-92
2021/12/20 03:09:22;;;;;;;24.33;4.27;;;1.20;99.90;;;;;;4883276;29;20080;-91
2021/12/20 03:12:38;;;;;;;23.10;3.60;;;0.90;99.90;;;;;;4909089;23;20044;-93
2021/12/20 03:15:11;;;;;;;20.43;3.23;;;0.50;99.90;;;;;;4923292;29;20043;-93
2021/12/20 03:17:43;;;;;;;21.70;3.70;;;1.10;99.90;;;;;;4923846;29;20516;-94
2021/12/20 03:20:26;;;;;;;24.43;3.80;;;2.00;99.90;;;;;;4946741;29;20311;-92
2021/12/20 03:23:01;;;;;;;20.63;3.83;;;1.10;99.90;;;;;;4925835;29;20052;-93
2021/12/20 03:25:26;;;;;;;20.97;4.20;;;1.50;99.90;;;;;;4926744;29;20111;-92
2021/12/20 03:27:58;;;;;;;21.57;4.40;;;1.20;99.90;;;;;;4946326;28;20028;-92
2021/12/20 03:30:35;;;;;;;21.73;3.33;;;1.60;99.90;;;;;;4932298;29;20484;-93
2021/12/20 03:33:10;;;;;;;23.40;3.83;;;1.30;99.90;;;;;;4923325;29;20492;-93
2021/12/20 03:35:51;;;;;;;19.10;3.10;;;0.70;99.90;;;;;;4923465;29;20166;-93
2021/12/20 03:41:12;;;;;;;22.43;3.40;;;0.90;99.90;;;;;;4982845;23;20061;-94
2021/12/20 03:43:52;;;;;;;19.27;3.50;;;1.00;99.90;;;;;;4961113;28;20399;-93
2021/12/20 03:46:33;;;;;;;22.50;3.20;;;0.80;99.90;;;;;;4961352;28;20047;-93
2021/12/20 03:49:19;;;;;;;21.60;3.43;;;1.50;99.90;;;;;;4960734;28;20047;-94
2021/12/20 03:51:58;;;;;;;22.83;3.40;;;0.10;99.90;;;;;;4960315;28;20087;-93
2021/12/20 03:54:29;;;;;;;23.17;3.53;;;0.70;99.90;;;;;;4960874;28;20509;-93
2021/12/20 03:57:40;;;;;;;18.53;3.20;;;0.70;99.90;;;;;;4967799;23;20118;-93
2021/12/20 04:00:19;;;;;;;21.77;3.70;;;0.40;99.90;;;;;;4960730;28;20050;-92
2021/12/20 04:02:56;;;;;;;19.57;3.13;;;0.90;99.90;;;;;;4973358;28;20038;-92
2021/12/20 04:05:33;;;;;;;19.80;3.53;;;0.90;99.90;;;;;;4965258;28;20042;-93
2021/12/20 04:08:11;;;;;;;20.93;3.93;;;0.30;99.90;;;;;;4960266;28;20122;-93
2021/12/20 04:10:52;;;;;;;23.40;3.77;;;1.10;99.90;;;;;;4960303;28;20485;-93
2021/12/20 04:13:33;;;;;;;17.60;2.97;;;0.50;99.90;;;;;;4961008;28;20070;-92
2021/12/20 04:15:59;;;;;;;23.93;3.10;;;0.20;99.90;;;;;;4971087;28;20090;-92
2021/12/20 04:18:29;;;;;;;19.03;3.60;;;-0.10;99.90;;;;;;4973595;28;20087;-93
2021/12/20 04:20:58;;;;;;;21.23;2.83;;;-0.10;99.90;;;;;;4984068;28;20082;-93
2021/12/20 04:23:29;;;;;;;15.80;2.93;;;0.90;99.90;;;;;;4978757;28;20047;-92
2021/12/20 04:26:10;;;;;;;18.73;3.37;;;-0.20;99.90;;;;;;4960835;28;20054;-93
2021/12/20 04:28:41;;;;;;;17.60;2.80;;;0.20;99.90;;;;;;4960719;28;20049;-93
2021/12/20 04:31:13;;;;;;;20.67;4.20;;;0.10;99.90;;;;;;4960978;28;20079;-93
2021/12/20 04:33:39;;;;;;;23.47;3.57;;;1.20;99.90;;;;;;4960775;28;20244;-92
2021/12/20 04:36:13;;;;;;;23.10;3.63;;;0.40;99.90;;;;;;4972664;28;20055;-93
2021/12/20 04:38:51;;;;;;;26.47;3.73;;;0.50;99.90;;;;;;4971887;28;20045;-91
2021/12/20 04:41:37;;;;;;;19.83;3.30;;;-0.30;99.90;;;;;;4964243;28;20086;-93
2021/12/20 04:44:15;;;;;;;20.20;3.60;;;0.10;99.90;;;;;;4966785;23;20073;-92
2021/12/20 04:50:08;;;;;;;18.08;3.47;;;0.00;99.90;;;;;;4937751;28;20051;-92
2021/12/20 04:52:54;;;;;;;15.87;3.30;;;-0.20;99.90;;;;;;4959349;28;20487;-92
2021/12/20 04:55:27;;;;;;;19.20;3.57;;;0.40;99.90;;;;;;4960088;28;20058;-93
2021/12/20 04:58:09;;;;;;;20.23;3.55;;;0.60;99.90;;;;;;4960123;28;20113;-92
2021/12/20 05:00:46;;;;;;;14.93;3.13;;;-0.30;99.90;;;;;;4958520;28;20039;-93
2021/12/20 05:03:53;;;;;;;19.23;3.33;;;-0.90;99.90;;;;;;4959724;28;20131;-93
2021/12/20 05:06:19;;;;;;;23.37;3.80;;;-1.00;99.90;;;;;;4961313;28;20355;-94
2021/12/20 05:08:54;;;;;;;18.03;3.27;;;-0.50;99.90;;;;;;4961987;28;20049;-93
2021/12/20 05:11:34;;;;;;;21.97;3.77;;;0.50;99.90;;;;;;4960609;28;20491;-93
2021/12/20 05:14:08;;;;;;;14.53;3.47;;;-0.80;99.90;;;;;;4982811;28;20094;-92
2021/12/20 05:16:43;;;;;;;19.53;3.33;;;-0.70;99.90;;;;;;4978367;28;20353;-93
2021/12/20 05:19:22;;;;;;;18.37;4.10;;;-0.50;99.90;;;;;;4964177;28;20490;-93
2021/12/20 05:22:00;;;;;;;18.70;3.17;;;-0.70;99.90;;;;;;4966603;28;20034;-93
2021/12/20 05:24:41;;;;;;;16.00;3.30;;;0.20;99.90;;;;;;4979932;28;20107;-93
2021/12/20 05:27:16;;;;;;;17.47;3.90;;;-1.20;99.90;;;;;;4963318;28;20054;-93
2021/12/20 05:29:56;;;;;;;16.50;3.47;;;-0.90;99.90;;;;;;4959401;28;20066;-93
2021/12/20 05:32:22;;;;;;;23.00;3.90;;;0.70;99.90;;;;;;4959401;28;20053;-93
2021/12/20 05:35:08;;;;;;;15.93;3.47;;;-0.40;99.90;;;;;;4958984;28;20042;-92
2021/12/20 05:37:34;;;;;;;16.83;3.87;;;-0.60;99.90;;;;;;4959773;28;20411;-92
2021/12/20 05:40:17;;;;;;;17.13;3.23;;;-0.80;99.90;;;;;;4953111;23;20047;-93
2021/12/20 05:42:45;;;;;;;19.00;4.17;;;0.20;99.90;;;;;;4920754;29;20052;-93
2021/12/20 05:45:17;;;;;;;16.47;3.80;;;-0.70;99.90;;;;;;4922387;29;20501;-92
2021/12/20 05:47:43;;;;;;;18.80;3.80;;;-0.60;99.90;;;;;;4921438;29;20051;-93
2021/12/20 05:50:22;;;;;;;19.47;3.33;;;-0.90;99.90;;;;;;4920788;29;20128;-93
2021/12/20 05:52:49;;;;;;;20.57;3.40;;;-0.50;99.90;;;;;;4931111;29;20055;-95
2021/12/20 05:55:18;;;;;;;18.27;3.80;;;-1.00;99.90;;;;;;4924722;29;20088;-94
2021/12/20 05:58:03;;;;;;;20.77;3.40;;;-0.70;99.90;;;;;;4921467;29;20043;-93
2021/12/20 06:00:49;;;;;;;;;;;-1.00;99.90;;;;;;4921556;29;20055;-93
2021/12/20 06:03:24;;;;;;;20.60;3.87;;;0.50;99.90;;;;;;4923209;29;19922;-93
2021/12/20 06:06:04;;;;;;;26.40;3.50;;;0.60;99.90;;;;;;4920159;29;20044;-93
2021/12/20 06:08:39;;;;;;;18.13;3.30;;;-0.70;99.90;;;;;;4920410;29;20046;-94
2021/12/20 06:11:14;;;;;;;24.70;4.33;;;0.10;99.90;;;;;;4958960;23;20063;-93
2021/12/20 06:13:53;;;;;;;22.87;4.40;;;0.50;99.90;;;;;;4959245;28;20466;-93
2021/12/20 06:16:27;;;;;;;19.90;3.90;;;-0.50;99.90;;;;;;4959003;28;20043;-93
2021/12/20 06:18:53;;;;;;;29.77;4.67;;;0.00;99.90;;;;;;4958387;28;20043;-94
2021/12/20 06:21:19;;;;;;;16.67;3.57;;;-1.30;99.90;;;;;;4958877;28;20545;-94
2021/12/20 06:23:45;;;;;;;31.20;5.20;;;-1.20;99.90;;;;;;4958294;28;20105;-93
2021/12/20 06:26:11;;;;;;;19.80;4.10;;;-0.70;99.90;;;;;;4958798;28;20078;-94
2021/12/20 06:28:36;;;;;;;30.00;5.40;;;-1.20;99.90;;;;;;4963410;28;20068;-94
2021/12/20 06:31:02;;;;;;;19.57;4.37;;;-0.10;99.90;;;;;;4973719;28;20057;-94
2021/12/20 06:33:28;;;;;;;18.87;4.77;;;-0.30;99.90;;;;;;4959656;28;20112;-94
2021/12/20 06:35:54;;;;;;;20.00;5.27;;;-1.00;99.90;;;;;;4958496;28;20086;-93
2021/12/20 06:38:22;;;;;;;22.00;4.37;;;-0.80;99.90;;;;;;4958769;28;20120;-93
2021/12/20 06:40:49;;;;;;;20.93;4.33;;;-0.90;99.90;;;;;;4958867;28;20052;-94
2021/12/20 06:43:21;;;;;;;23.37;4.60;;;0.10;99.90;;;;;;4958271;28;20094;-94
2021/12/20 06:45:47;;;;;;;22.70;4.40;;;-1.30;99.90;;;;;;4958586;28;20054;-94
2021/12/20 06:48:22;;;;;;;18.67;4.53;;;-0.40;99.90;;;;;;4961677;28;20046;-93
2021/12/20 06:50:47;;;;;;;14.03;4.13;;;0.10;99.90;;;;;;4956882;28;20047;-89
2021/12/20 06:53:13;;;;;;;27.00;5.70;;;-0.90;99.90;;;;;;4956205;28;20041;-86
2021/12/20 06:55:48;;;;;;;16.83;4.40;;;-1.40;99.90;;;;;;4956158;28;20081;-86
2021/12/20 06:58:13;;;;;;;21.67;5.07;;;-0.80;99.90;;;;;;4956660;28;20483;-85
2021/12/20 07:00:48;;;;;;;23.43;5.40;;;-1.40;99.90;;;;;;4955572;28;20047;-87
2021/12/20 07:03:31;;;;;;;22.07;4.40;;;-1.60;99.90;;;;;;4956436;28;20054;-85
2021/12/20 07:05:57;;;;;;;16.80;4.95;;;-1.50;99.90;;;;;;4960127;28;20042;-84
2021/12/20 07:08:23;;;;;;;16.07;4.73;;;-1.50;99.90;;;;;;4974970;28;20118;-85
2021/12/20 07:11:14;;;;;;;21.40;4.33;;;-1.50;99.90;;;;;;4973556;28;20510;-85
2021/12/20 07:13:40;;;;;;;26.83;5.00;;;-1.60;99.90;;;;;;4965876;28;20759;-85
2021/12/20 07:16:07;;;;;;;20.00;5.23;;;-1.60;99.90;;;;;;4978700;28;20050;-85
2021/12/20 07:18:33;;;;;;;20.93;4.60;;;-1.60;99.90;;;;;;4970439;28;20050;-84
2021/12/20 07:20:59;;;;;;;21.33;4.77;;;-1.70;99.90;;;;;;4977534;28;20046;-86
2021/12/20 07:23:26;;;;;;;23.17;5.37;;;-0.60;99.90;;;;;;4957849;28;20041;-84
2021/12/20 07:25:52;;;;;;;22.27;5.73;;;-1.60;99.90;;;;;;4956136;28;20154;-84
2021/12/20 07:28:18;;;;;;;20.83;5.37;;;-0.40;99.90;;;;;;4973600;28;20045;-84
2021/12/20 07:30:48;;;;;;;23.63;5.23;;;-0.70;99.90;;;;;;4955321;28;20034;-84
2021/12/20 07:33:15;;;;;;;24.73;6.17;;;-1.50;99.90;;;;;;4971361;28;20050;-84
2021/12/20 07:35:42;;;;;;;24.23;5.90;;;-1.50;99.90;;;;;;4957334;28;20097;-85
2021/12/20 07:38:11;;;;;;;20.97;5.30;;;-1.60;99.90;;;;;;4976829;28;20134;-84
2021/12/20 07:40:37;;;;;;;25.40;7.40;;;-1.60;99.90;;;;;;4977156;28;20046;-84
2021/12/20 07:43:03;;;;;;;29.77;8.37;;;-1.60;99.90;;;;;;4958983;28;20049;-84
2021/12/20 07:45:28;;;;;;;29.00;8.70;;;-1.60;99.90;;;;;;4959892;28;20082;-84
2021/12/20 07:47:54;;;;;;;29.77;8.87;;;-1.60;99.90;;;;;;4958286;28;20053;-85
2021/12/20 07:50:20;;;;;;;30.07;8.23;;;-1.60;99.90;;;;;;4959570;28;20051;-84
2021/12/20 07:52:47;;;;;;;29.73;9.90;;;-1.60;99.90;;;;;;4959339;28;20043;-84
2021/12/20 07:55:13;;;;;;;28.17;9.37;;;-1.60;99.90;;;;;;4958599;28;20042;-85
2021/12/20 07:57:38;;;;;;;26.10;9.57;;;-1.60;99.90;;;;;;4959423;28;20042;-84
2021/12/20 08:00:09;;;;;;;30.40;8.47;;;-1.60;99.90;;;;;;4976534;28;20479;-85
2021/12/20 08:02:35;;;;;;;28.27;8.70;;;-1.60;99.90;;;;;;4958653;28;20055;-85
2021/12/20 08:05:02;;;;;;;27.33;8.63;;;-1.60;99.90;;;;;;4959181;28;20054;-87
2021/12/20 08:07:28;;;;;;;27.73;8.43;;;-1.60;99.90;;;;;;4958914;28;20058;-86
2021/12/20 08:09:53;;;;;;;25.60;8.23;;;-1.60;99.90;;;;;;4975067;28;20059;-86
2021/12/20 08:12:19;;;;;;;25.37;7.87;;;-1.60;99.90;;;;;;4958973;28;20054;-86
2021/12/20 08:14:45;;;;;;;29.50;8.47;;;-1.50;99.90;;;;;;4958592;28;20479;-86
2021/12/20 08:17:20;;;;;;;29.57;8.73;;;-1.60;99.90;;;;;;4946141;23;20062;-87
2021/12/20 08:19:46;;;;;;;28.90;8.60;;;-1.90;99.90;;;;;;4921496;29;20058;-87
2021/12/20 08:22:11;;;;;;;26.67;8.07;;;-0.60;99.90;;;;;;4920449;29;20059;-87
2021/12/20 08:24:56;;;;;;;32.03;8.93;;;-1.90;99.90;;;;;;4920209;29;20448;-87
2021/12/20 08:27:21;;;;;;;32.13;9.20;;;-1.80;99.90;;;;;;4919087;29;20141;-86
2021/12/20 08:29:47;;;;;;;34.67;9.30;;;-1.60;99.90;;;;;;4920062;29;20075;-87
2021/12/20 08:32:22;;;;;;;30.10;8.83;;;-1.90;99.90;;;;;;4920002;29;20052;-87
2021/12/20 08:34:48;;;;;;;26.67;8.17;;;-2.00;99.90;;;;;;4919994;29;20048;-87
2021/12/20 08:37:32;;;;;;;28.43;8.53;;;-1.40;99.90;;;;;;4919811;29;20055;-87
2021/12/20 08:40:22;;;;;;;24.67;8.00;;;-1.30;99.90;;;;;;4920521;29;20504;-86
2021/12/20 08:43:06;;;;;;;28.43;8.70;;;-1.50;99.90;;;;;;4934529;29;20058;-86
2021/12/20 08:45:53;;;;;;;25.73;8.18;;;-1.50;99.90;;;;;;4936543;29;20481;-86
2021/12/20 08:48:19;;;;;;;25.67;8.40;;;-1.70;99.90;;;;;;4920544;29;20048;-86
2021/12/20 08:51:06;;;;;;;31.57;9.43;;;-1.60;99.90;;;;;;4920481;29;20052;-86
2021/12/20 08:53:45;;;;;;;26.50;9.17;;;-1.10;99.90;;;;;;4920277;29;20048;-86
2021/12/20 08:56:11;;;;;;;30.00;9.07;;;-1.60;99.90;;;;;;4931055;29;20058;-85
2021/12/20 08:58:46;;;;;;;28.43;9.40;;;-1.50;99.90;;;;;;4924470;29;20046;-86
2021/12/20 09:01:27;;;;;;;29.87;10.67;;;-0.40;99.90;;;;;;4920108;29;20444;-86
2021/12/20 09:04:07;;;;;;;30.00;9.60;;;-1.40;99.90;;;;;;4918515;29;20044;-87
2021/12/20 09:06:38;;;;;;;39.27;9.77;;;-1.30;99.90;;;;;;4917727;29;20106;-88
2021/12/20 09:09:38;;;;;;;32.70;11.50;;;0.00;99.90;;;;;;4923574;29;20060;-86
2021/12/20 09:14:55;;;;;;;31.27;10.80;;;-0.90;99.90;;;;;;4844356;29;20057;-89
2021/12/20 09:17:21;;;;;;;28.20;10.63;;;-1.00;99.90;;;;;;4843571;29;20110;-87
2021/12/20 09:19:58;;;;;;;32.20;10.70;;;-1.00;99.90;;;;;;4916335;29;20472;-88
2021/12/20 09:22:38;;;;;;;38.63;12.87;;;-0.60;99.90;;;;;;4917704;29;20058;-87
2021/12/20 09:25:07;;;;;;;36.80;11.33;;;-1.20;99.90;;;;;;4919638;29;20095;-84
2021/12/20 09:27:45;;;;;;;36.43;12.03;;;-0.60;99.90;;;;;;4919044;29;20059;-90
2021/12/20 09:30:18;;;;;;;36.57;12.60;;;1.30;99.90;;;;;;4936513;29;20449;-85
2021/12/20 09:32:44;;;;;;;38.23;14.47;;;-1.00;99.90;;;;;;4918992;29;20055;-85
2021/12/20 09:35:12;;;;;;;34.20;11.83;;;-0.50;99.90;;;;;;4918408;29;20480;-85
2021/12/20 09:37:39;;;;;;;41.33;17.30;;;0.70;99.90;;;;;;4919555;29;20059;-84
2021/12/20 09:40:13;;;;;;;45.90;18.67;;;0.70;99.90;;;;;;4918868;29;20051;-87
2021/12/20 09:43:04;;;;;;;52.80;19.53;;;0.00;99.90;;;;;;4933297;29;20058;-86
2021/12/20 09:45:30;;;;;;;51.37;17.60;;;0.30;99.90;;;;;;4919016;29;20107;-87
2021/12/20 09:48:03;;;;;;;42.73;16.37;;;1.30;99.90;;;;;;4917236;29;20071;-86
2021/12/20 09:50:37;;;;;;;39.73;15.33;;;0.40;99.90;;;;;;4918930;29;20366;-85
2021/12/20 09:53:07;;;;;;;39.70;15.43;;;0.20;99.90;;;;;;4936080;29;20047;-85
2021/12/20 09:55:34;;;;;;;40.30;14.13;;;0.30;99.90;;;;;;4918537;29;20484;-85
2021/12/20 09:58:13;;;;;;;42.83;15.13;;;1.70;99.90;;;;;;4918196;29;20056;-85
2021/12/20 10:03:43;;;;;;;36.77;12.57;;;1.80;99.90;;;;;;4918329;29;20389;-86
2021/12/20 10:06:26;;;;;;;38.57;12.73;;;1.90;99.90;;;;;;4919196;29;20056;-91
2021/12/20 10:09:12;;;;;;;41.83;13.35;;;1.10;99.90;;;;;;4919349;29;20052;-91
2021/12/20 10:12:33;;;;;;;39.00;12.50;;;1.40;99.90;;;;;;4919241;29;20056;-86
2021/12/20 10:15:10;;;;;;;37.77;14.33;;;0.50;99.90;;;;;;4922782;29;20048;-86
2021/12/20 10:18:05;;;;;;;39.83;14.67;;;1.40;99.90;;;;;;4942245;29;20087;-86
2021/12/20 10:20:50;;;;;;;41.87;13.40;;;1.60;99.90;;;;;;4927322;29;20476;-85
2021/12/20 10:23:20;;;;;;;36.57;11.50;;;1.30;99.90;;;;;;4919375;29;20059;-85
2021/12/20 10:26:00;;;;;;;28.90;8.27;;;1.40;99.90;;;;;;4917499;29;20055;-86
2021/12/20 10:28:41;;;;;;;29.77;7.83;;;1.40;99.90;;;;;;4918276;29;20427;-84
2021/12/20 10:31:18;;;;;;;21.47;8.17;;;3.20;99.90;;;;;;4934576;29;20391;-84
2021/12/20 10:34:03;;;;;;;26.03;7.70;;;1.70;99.90;;;;;;4916494;29;20488;-84
2021/12/20 10:36:50;;;;;;;28.47;8.03;;;2.10;99.90;;;;;;4917190;29;20112;-85
2021/12/20 10:39:16;;;;;;;22.73;7.40;;;2.40;99.90;;;;;;4917093;29;20066;-85
2021/12/20 10:41:51;;;;;;;26.40;6.90;;;2.30;99.90;;;;;;4983539;23;20058;-85
2021/12/20 10:44:24;;;;;;;25.03;8.17;;;2.40;99.90;;;;;;4955585;28;20086;-85
2021/12/20 10:47:04;;;;;;;24.83;7.05;;;2.40;99.90;;;;;;4953987;28;20058;-85
2021/12/20 10:49:45;;;;;;;26.73;8.83;;;3.00;99.90;;;;;;4951398;28;20046;-85
2021/12/20 10:52:36;;;;;;;21.50;5.93;;;3.50;99.90;;;;;;4966297;23;20102;-85
2021/12/20 10:55:49;;;;;;;20.30;5.30;;;1.70;99.90;;;;;;4956218;28;20069;-85
2021/12/20 10:58:43;;;;;;;16.97;5.50;;;3.20;99.90;;;;;;4956196;28;20471;-85
2021/12/20 11:02:01;;;;;;;21.30;4.70;;;3.70;99.90;;;;;;4933696;28;20051;-85
2021/12/20 11:04:28;;;;;;;17.90;4.67;;;3.90;99.90;;;;;;4956269;28;20109;-85
2021/12/20 11:10:26;;;;;;;15.60;4.27;;;4.30;99.90;;;;;;4965391;23;20054;-85
2021/12/20 11:13:00;;;;;;;17.50;4.57;;;4.30;99.90;;;;;;4960069;28;20220;-85
2021/12/20 11:15:44;;;;;;;13.67;4.30;;;5.10;99.90;;;;;;4960288;28;20038;-85
2021/12/20 11:18:30;;;;;;;21.05;4.95;;;4.00;99.90;;;;;;4960215;28;20050;-84
2021/12/20 11:21:20;;;;;;;15.03;4.00;;;5.10;99.90;;;;;;4959145;28;20054;-85
2021/12/20 11:24:16;;;;;;;14.20;3.60;;;5.00;99.90;;;;;;4959913;28;20086;-85
2021/12/20 11:27:05;;;;;;;15.07;4.10;;;5.00;99.90;;;;;;4959171;28;20046;-85
2021/12/20 11:29:31;;;;;;;15.43;3.47;;;4.90;99.90;;;;;;4958791;28;20039;-84
2021/12/20 11:32:18;;;;;;;11.77;3.23;;;5.30;99.90;;;;;;4960068;28;20391;-84
2021/12/20 11:34:45;;;;;;;13.87;3.30;;;4.80;99.90;;;;;;4958850;28;20038;-84
2021/12/20 11:37:27;;;;;;;11.93;3.20;;;4.90;99.90;;;;;;4959671;28;20181;-85
2021/12/20 11:40:08;;;;;;;11.80;2.93;;;5.00;99.90;;;;;;4975880;28;20046;-85
2021/12/20 11:42:43;;;;;;;10.63;3.00;;;5.30;99.90;;;;;;4975146;28;20050;-86
2021/12/20 11:45:20;;;;;;;15.53;2.70;;;6.00;99.90;;;;;;4959508;28;20093;-84
2021/12/20 11:48:04;;;;;;;11.57;3.03;;;5.80;99.90;;;;;;4957797;28;20089;-84
2021/12/20 11:50:37;;;;;;;;;;;5.30;99.90;;;;;;4960260;28;20050;-85
2021/12/20 11:53:19;;;;;;;10.97;2.67;;;6.20;99.90;;;;;;4959524;28;19933;-84
2021/12/20 11:55:53;;;;;;;10.17;2.40;;;5.40;99.90;;;;;;4958666;28;20105;-85
2021/12/20 11:58:37;;;;;;;11.47;2.73;;;6.40;99.90;;;;;;4948224;28;20106;-84
2021/12/20 12:01:18;;;;;;;10.98;2.50;;;5.20;99.90;;;;;;4938969;28;20106;-84
2021/12/20 12:03:58;;;;;;;9.73;2.40;;;4.90;99.90;;;;;;4941766;28;20535;-84
2021/12/20 12:06:26;;;;;;;12.17;2.77;;;5.30;99.90;;;;;;4957590;29;20039;-84
2021/12/20 12:08:52;;;;;;;10.83;2.77;;;4.70;99.90;;;;;;4938950;29;20629;-84
2021/12/20 12:11:19;;;;;;;12.83;3.00;;;5.60;99.90;;;;;;4957139;28;20047;-84
2021/12/20 12:13:51;;;;;;;10.50;3.00;;;4.60;99.90;;;;;;4939781;29;20051;-84
2021/12/20 12:16:30;;;;;;;13.77;3.30;;;5.30;99.90;;;;;;4939376;29;20484;-84
2021/12/20 12:18:59;;;;;;;14.07;3.63;;;4.60;99.90;;;;;;4939379;29;20475;-86
2021/12/20 12:21:38;;;;;;;9.73;2.20;;;5.30;99.90;;;;;;4956473;28;20098;-85
2021/12/20 12:24:09;;;;;;;12.90;2.60;;;5.70;99.90;;;;;;4956206;29;20055;-85
2021/12/20 12:26:40;;;;;;;10.03;2.83;;;4.80;99.90;;;;;;4940333;29;20440;-85
2021/12/20 12:29:20;;;;;;;8.63;2.40;;;4.60;99.90;;;;;;4946437;28;20050;-85
2021/12/20 12:32:01;;;;;;;12.73;2.57;;;4.50;99.90;;;;;;4975772;28;20507;-85
2021/12/20 12:34:39;;;;;;;11.93;2.80;;;4.60;99.90;;;;;;4958185;28;20472;-85
2021/12/20 12:37:36;;;;;;;11.40;2.80;;;5.60;99.90;;;;;;4958234;28;20049;-85
2021/12/20 12:40:33;;;;;;;10.07;2.70;;;4.00;99.90;;;;;;4958203;28;20051;-85
2021/12/20 12:43:08;;;;;;;10.70;2.30;;;5.20;99.90;;;;;;4958449;28;20467;-85
2021/12/20 12:46:00;;;;;;;10.93;2.50;;;5.50;99.90;;;;;;4958989;28;20058;-85
2021/12/20 12:48:39;;;;;;;11.63;2.67;;;5.40;99.90;;;;;;4977580;28;20050;-85
2021/12/20 12:51:33;;;;;;;9.30;2.67;;;6.30;99.90;;;;;;4974651;28;20043;-85
2021/12/20 12:53:59;;;;;;;12.40;3.10;;;4.90;99.90;;;;;;4975651;28;20047;-85
2021/12/20 12:56:25;;;;;;;9.73;2.37;;;6.50;99.90;;;;;;4962451;28;20049;-86
2021/12/20 12:59:12;;;;;;;14.47;2.77;;;6.20;99.90;;;;;;4957724;28;20051;-86
2021/12/20 13:01:56;;;;;;;8.80;2.40;;;6.00;99.90;;;;;;4975503;28;20047;-86
2021/12/20 13:04:49;;;;;;;10.23;2.63;;;5.90;99.90;;;;;;4974638;28;20035;-86
2021/12/20 13:07:18;;;;;;;8.80;2.17;;;6.10;99.90;;;;;;4958198;28;20054;-85
2021/12/20 13:09:46;;;;;;;9.50;2.10;;;5.90;99.90;;;;;;4957699;28;20065;-86
2021/12/20 13:12:24;;;;;;;8.37;2.10;;;5.50;99.90;;;;;;4974929;28;20053;-85
2021/12/20 13:15:49;;;;;;;10.90;2.23;;;6.20;99.90;;;;;;4958795;28;20043;-86
2021/12/20 13:18:10;;;;;;;11.40;2.40;;;6.20;99.90;;;;;;4959082;28;20042;-85
2021/12/20 13:21:06;;;;;;;9.50;2.37;;;6.60;99.90;;;;;;4992181;28;20051;-86
2021/12/20 13:23:46;;;;;;;8.50;2.23;;;6.30;99.90;;;;;;4984322;28;20078;-86
2021/12/20 13:26:21;;;;;;;9.73;2.10;;;6.30;99.90;;;;;;4942832;29;20054;-86
2021/12/20 13:29:00;;;;;;;9.07;2.07;;;6.10;99.90;;;;;;4938751;29;20043;-86
2021/12/20 13:31:26;;;;;;;11.00;2.30;;;6.50;99.90;;;;;;4962137;28;20046;-86
2021/12/20 13:33:55;;;;;;;10.37;2.30;;;6.70;99.90;;;;;;4973520;28;20065;-87
2021/12/20 13:36:24;;;;;;;19.10;5.80;;;6.30;99.90;;;;;;4957367;28;20085;-86
2021/12/20 13:38:54;;;;;;;9.07;2.77;;;6.10;99.90;;;;;;4956995;28;20111;-82
2021/12/20 13:41:29;;;;;;;9.37;2.57;;;6.30;99.90;;;;;;4937667;29;20522;-82
2021/12/20 13:44:05;;;;;;;12.80;2.67;;;6.30;99.90;;;;;;4937976;29;20423;-83
2021/12/20 13:49:10;;;;;;;9.37;2.03;;;6.20;99.90;;;;;;4938068;29;20095;-82
2021/12/20 13:51:55;;;;;;;7.82;2.20;;;6.30;99.90;;;;;;4938017;29;20479;-82
2021/12/20 13:54:36;;;;;;;9.67;2.30;;;6.20;99.90;;;;;;4937708;29;20047;-82
2021/12/20 13:57:11;;;;;;;57.70;39.03;;;6.10;99.90;;;;;;4937767;29;20054;-82
2021/12/20 13:59:49;;;;;;;12.40;5.00;;;6.00;99.90;;;;;;4938170;29;20063;-82
2021/12/20 14:02:18;;;;;;;11.47;3.47;;;5.90;99.90;;;;;;4937529;29;20051;-82
2021/12/20 14:04:45;;;;;;;9.80;2.73;;;5.80;99.90;;;;;;4937552;29;20045;-82
2021/12/20 14:07:33;;;;;;;13.07;6.33;;;5.70;99.90;;;;;;4938173;29;20051;-82
2021/12/20 14:10:10;;;;;;;13.40;5.27;;;5.50;99.90;;;;;;4937276;29;20083;-82